createdAt,value
2022-11-09T00:02:47.257Z,18.70
2022-11-09T00:05:59.594Z,16.90
2022-11-09T00:09:10.830Z,17.70
2022-11-09T00:12:17.050Z,15.90
2022-11-09T00:15:23.532Z,17.90
2022-11-09T00:18:29.290Z,17.43
2022-11-09T00:21:35.794Z,16.63
2022-11-09T00:24:44.223Z,19.77
2022-11-09T00:27:52.280Z,16.87
2022-11-09T00:31:03.175Z,17.63
2022-11-09T00:34:09.999Z,21.03
2022-11-09T00:37:15.598Z,22.07
2022-11-09T00:40:24.825Z,22.50
2022-11-09T00:43:30.702Z,21.70
2022-11-09T00:46:37.136Z,25.83
2022-11-09T00:49:42.923Z,24.53
2022-11-09T00:52:49.547Z,21.57
2022-11-09T00:56:03.790Z,26.63
2022-11-09T00:59:13.529Z,26.93
2022-11-09T01:02:19.522Z,23.83
2022-11-09T01:05:25.989Z,23.17
2022-11-09T01:08:31.720Z,25.07
2022-11-09T01:11:41.484Z,22.83
2022-11-09T01:14:47.477Z,21.87
2022-11-09T01:17:54.849Z,24.70
2022-11-09T01:21:06.333Z,18.17
2022-11-09T01:24:13.293Z,18.73
2022-11-09T01:27:21.706Z,18.67
2022-11-09T01:30:28.207Z,17.90
2022-11-09T01:33:35.492Z,17.50
2022-11-09T01:36:42.722Z,16.20
2022-11-09T01:39:48.325Z,17.57
2022-11-09T01:42:57.577Z,19.73
2022-11-09T01:46:07.910Z,14.40
2022-11-09T01:49:24.037Z,15.90
2022-11-09T01:52:35.200Z,12.70
2022-11-09T01:55:42.305Z,13.20
2022-11-09T01:58:54.797Z,14.90
2022-11-09T02:02:03.440Z,16.13
2022-11-09T02:05:15.614Z,14.90
2022-11-09T02:08:26.358Z,13.27
2022-11-09T02:11:32.432Z,17.87
2022-11-09T02:14:42.386Z,14.80
2022-11-09T02:17:48.444Z,15.23
2022-11-09T02:21:02.648Z,17.80
2022-11-09T02:24:09.481Z,16.90
2022-11-09T02:27:16.484Z,14.67
2022-11-09T02:30:25.237Z,14.33
2022-11-09T02:33:32.297Z,14.80
2022-11-09T02:36:41.244Z,17.97
2022-11-09T02:39:52.127Z,18.37
2022-11-09T02:43:00.096Z,16.77
2022-11-09T02:46:08.718Z,13.43
2022-11-09T02:49:16.125Z,16.13
2022-11-09T02:52:24.658Z,15.67
2022-11-09T02:55:33.056Z,16.87
2022-11-09T02:58:39.003Z,16.07
2022-11-09T03:01:45.576Z,15.17
2022-11-09T03:04:51.592Z,14.60
2022-11-09T03:08:03.147Z,13.23
2022-11-09T03:11:12.594Z,13.10
2022-11-09T03:14:19.649Z,13.80
2022-11-09T03:17:30.418Z,15.37
2022-11-09T03:20:37.208Z,18.37
2022-11-09T03:23:46.032Z,18.77
2022-11-09T03:26:53.112Z,18.47
2022-11-09T03:29:58.987Z,14.57
2022-11-09T03:33:10.322Z,17.43
2022-11-09T03:36:17.178Z,15.30
2022-11-09T03:39:26.522Z,18.03
2022-11-09T03:42:32.469Z,17.37
2022-11-09T03:45:39.652Z,17.87
2022-11-09T03:48:45.354Z,16.17
2022-11-09T03:51:51.869Z,18.23
2022-11-09T03:55:00.241Z,18.43
2022-11-09T03:58:09.886Z,16.17
2022-11-09T04:01:15.566Z,14.10
2022-11-09T04:04:22.149Z,18.20
2022-11-09T04:07:27.997Z,13.67
2022-11-09T04:10:37.251Z,17.30
2022-11-09T04:13:42.843Z,16.50
2022-11-09T04:16:49.523Z,13.50
2022-11-09T04:19:55.132Z,15.60
2022-11-09T04:23:03.405Z,15.67
2022-11-09T04:26:12.004Z,12.60
2022-11-09T04:29:18.474Z,12.03
2022-11-09T04:32:24.106Z,13.47
2022-11-09T04:35:32.274Z,15.50
2022-11-09T04:38:38.188Z,15.87
2022-11-09T04:41:47.492Z,16.03
2022-11-09T04:44:53.144Z,19.30
2022-11-09T04:48:01.023Z,16.80
2022-11-09T04:51:10.622Z,15.80
2022-11-09T04:54:17.298Z,20.70
2022-11-09T04:57:25.709Z,17.77
2022-11-09T05:00:32.281Z,16.83
2022-11-09T05:03:38.292Z,18.67
2022-11-09T05:06:44.904Z,14.27
2022-11-09T05:09:50.938Z,14.37
2022-11-09T05:13:04.133Z,15.90
2022-11-09T05:16:10.345Z,15.87
2022-11-09T05:19:16.833Z,14.90
2022-11-09T05:22:38.138Z,17.30
2022-11-09T05:25:44.674Z,16.30
2022-11-09T05:28:53.109Z,16.33
2022-11-09T05:31:59.666Z,16.00
2022-11-09T05:35:07.233Z,18.13
2022-11-09T05:38:13.779Z,20.07
2022-11-09T05:41:20.198Z,23.83
2022-11-09T05:44:34.528Z,16.10
2022-11-09T05:47:41.307Z,19.33
2022-11-09T05:50:48.177Z,19.57
2022-11-09T05:54:01.212Z,16.23
2022-11-09T05:57:08.770Z,15.97
2022-11-09T06:00:19.084Z,18.87
2022-11-09T06:03:25.591Z,17.70
2022-11-09T06:06:31.225Z,16.83
2022-11-09T06:09:37.832Z,19.37
2022-11-09T06:12:43.683Z,21.37
2022-11-09T06:15:58.845Z,17.37
2022-11-09T06:19:06.468Z,15.90
2022-11-09T06:22:13.117Z,18.13
2022-11-09T06:25:18.921Z,18.87
2022-11-09T06:28:25.371Z,18.70
2022-11-09T06:31:33.817Z,20.30
2022-11-09T06:34:40.327Z,21.37
2022-11-09T06:37:45.953Z,20.23
2022-11-09T06:40:54.358Z,23.00
2022-11-09T06:44:00.663Z,19.87
2022-11-09T06:47:11.640Z,22.47
2022-11-09T06:50:18.284Z,21.33
2022-11-09T06:53:24.852Z,21.63
2022-11-09T06:56:30.885Z,21.07
2022-11-09T06:59:38.253Z,23.03
2022-11-09T07:02:46.948Z,25.37
2022-11-09T07:05:55.310Z,24.17
2022-11-09T07:09:01.280Z,23.00
2022-11-09T07:12:09.306Z,22.27
2022-11-09T07:15:15.696Z,16.83
2022-11-09T07:18:25.559Z,19.13
2022-11-09T07:21:31.303Z,20.07
2022-11-09T07:24:37.812Z,21.67
2022-11-09T07:27:43.785Z,21.77
2022-11-09T07:30:53.143Z,21.10
2022-11-09T07:34:04.983Z,19.80
2022-11-09T07:37:14.308Z,19.43
2022-11-09T07:40:20.223Z,17.10
2022-11-09T07:43:26.866Z,15.53
2022-11-09T07:46:35.763Z,16.17
2022-11-09T07:49:45.252Z,16.13
2022-11-09T07:52:51.184Z,17.83
2022-11-09T07:56:02.520Z,17.83
2022-11-09T07:59:08.831Z,17.57
2022-11-09T08:02:16.483Z,19.73
2022-11-09T08:05:25.236Z,12.37
2022-11-09T08:08:31.722Z,18.77
2022-11-09T08:11:37.382Z,15.67
2022-11-09T08:14:43.872Z,16.20
2022-11-09T08:17:49.503Z,15.40
2022-11-09T08:20:58.827Z,16.10
2022-11-09T08:24:06.393Z,15.30
2022-11-09T08:27:13.193Z,15.97
2022-11-09T08:30:21.066Z,14.37
2022-11-09T08:33:28.182Z,13.43
2022-11-09T08:36:36.606Z,14.53
2022-11-09T08:39:43.491Z,15.10
2022-11-09T08:42:49.637Z,10.70
2022-11-09T08:45:56.143Z,14.70
2022-11-09T08:49:05.193Z,11.87
2022-11-09T08:52:14.613Z,14.67
2022-11-09T08:55:20.782Z,14.53
2022-11-09T08:58:27.719Z,11.60
2022-11-09T09:01:33.367Z,14.20
2022-11-09T09:04:39.924Z,11.27
2022-11-09T09:07:48.441Z,11.87
2022-11-09T09:10:54.924Z,10.70
2022-11-09T09:14:00.753Z,11.93
2022-11-09T09:17:09.112Z,12.77
2022-11-09T09:20:14.878Z,12.40
2022-11-09T09:23:24.499Z,10.33
